sensor_id;sensor_type;location;lat;lon;timestamp;pressure;altitude;pressure_sealevel;temperature
69704;BMP280;56967;43.538;-5.646;2022-09-19T00:00:40;101719.97;;;26.10
69704;BMP280;56967;43.538;-5.646;2022-09-19T00:03:06;101714.16;;;26.03
69704;BMP280;56967;43.538;-5.646;2022-09-19T00:05:32;101711.00;;;26.15
69704;BMP280;56967;43.538;-5.646;2022-09-19T00:07:58;101715.47;;;26.20
69704;BMP280;56967;43.538;-5.646;2022-09-19T00:10:24;101714.38;;;26.21
69704;BMP280;56967;43.538;-5.646;2022-09-19T00:12:51;101720.16;;;26.28
69704;BMP280;56967;43.538;-5.646;2022-09-19T00:15:17;101715.59;;;26.28
69704;BMP280;56967;43.538;-5.646;2022-09-19T00:17:43;101714.38;;;26.21
69704;BMP280;56967;43.538;-5.646;2022-09-19T00:20:09;101715.56;;;26.14
69704;BMP280;56967;43.538;-5.646;2022-09-19T00:22:34;101707.28;;;26.11
69704;BMP280;56967;43.538;-5.646;2022-09-19T00:25:00;101708.19;;;26.20
69704;BMP280;56967;43.538;-5.646;2022-09-19T00:27:26;101710.69;;;26.17
69704;BMP280;56967;43.538;-5.646;2022-09-19T00:29:54;101707.78;;;25.86
69704;BMP280;56967;43.538;-5.646;2022-09-19T00:32:22;101711.94;;;25.78
69704;BMP280;56967;43.538;-5.646;2022-09-19T00:34:49;101709.97;;;26.11
69704;BMP280;56967;43.538;-5.646;2022-09-19T00:37:19;101707.56;;;26.23
69704;BMP280;56967;43.538;-5.646;2022-09-19T00:39:45;101703.88;;;26.19
69704;BMP280;56967;43.538;-5.646;2022-09-19T00:42:17;101704.47;;;26.16
69704;BMP280;56967;43.538;-5.646;2022-09-19T00:47:12;101695.06;;;26.00
69704;BMP280;56967;43.538;-5.646;2022-09-19T00:49:43;101707.88;;;25.94
69704;BMP280;56967;43.538;-5.646;2022-09-19T00:52:14;101697.78;;;25.54
69704;BMP280;56967;43.538;-5.646;2022-09-19T00:54:45;101698.81;;;26.04
69704;BMP280;56967;43.538;-5.646;2022-09-19T00:57:14;101697.56;;;25.96
69704;BMP280;56967;43.538;-5.646;2022-09-19T00:59:43;101694.88;;;25.96
69704;BMP280;56967;43.538;-5.646;2022-09-19T01:02:11;101693.41;;;26.04
69704;BMP280;56967;43.538;-5.646;2022-09-19T01:04:38;101685.81;;;25.60
69704;BMP280;56967;43.538;-5.646;2022-09-19T01:18:10;101683.69;;;25.89
69704;BMP280;56967;43.538;-5.646;2022-09-19T01:21:09;101681.78;;;25.12
69704;BMP280;56967;43.538;-5.646;2022-09-19T01:26:43;101685.94;;;25.55
69704;BMP280;56967;43.538;-5.646;2022-09-19T01:29:12;101678.16;;;25.54
69704;BMP280;56967;43.538;-5.646;2022-09-19T01:31:43;101682.50;;;25.82
69704;BMP280;56967;43.538;-5.646;2022-09-19T01:34:24;101682.13;;;25.88
69704;BMP280;56967;43.538;-5.646;2022-09-19T01:37:11;101675.53;;;25.94
69704;BMP280;56967;43.538;-5.646;2022-09-19T01:39:40;101672.47;;;25.55
69704;BMP280;56967;43.538;-5.646;2022-09-19T01:42:11;101667.19;;;25.77
69704;BMP280;56967;43.538;-5.646;2022-09-19T01:44:37;101661.22;;;25.67
69704;BMP280;56967;43.538;-5.646;2022-09-19T01:47:26;101665.00;;;25.79
69704;BMP280;56967;43.538;-5.646;2022-09-19T01:50:06;101666.72;;;25.75
69704;BMP280;56967;43.538;-5.646;2022-09-19T01:55:25;101655.16;;;25.75
69704;BMP280;56967;43.538;-5.646;2022-09-19T02:01:07;101661.06;;;26.04
69704;BMP280;56967;43.538;-5.646;2022-09-19T02:03:37;101661.44;;;25.97
69704;BMP280;56967;43.538;-5.646;2022-09-19T02:08:50;101644.28;;;25.93
69704;BMP280;56967;43.538;-5.646;2022-09-19T02:11:20;101646.28;;;25.88
69704;BMP280;56967;43.538;-5.646;2022-09-19T02:13:51;101646.53;;;25.59
69704;BMP280;56967;43.538;-5.646;2022-09-19T02:16:23;101640.91;;;26.01
69704;BMP280;56967;43.538;-5.646;2022-09-19T02:18:54;101641.38;;;25.76
69704;BMP280;56967;43.538;-5.646;2022-09-19T02:21:33;101638.69;;;25.76
69704;BMP280;56967;43.538;-5.646;2022-09-19T02:24:05;101640.25;;;25.77
69704;BMP280;56967;43.538;-5.646;2022-09-19T02:26:40;101635.38;;;25.79
69704;BMP280;56967;43.538;-5.646;2022-09-19T02:29:09;101633.41;;;25.71
69704;BMP280;56967;43.538;-5.646;2022-09-19T02:31:35;101633.09;;;25.41
69704;BMP280;56967;43.538;-5.646;2022-09-19T02:34:05;101635.31;;;25.39
69704;BMP280;56967;43.538;-5.646;2022-09-19T02:36:50;101626.53;;;25.47
69704;BMP280;56967;43.538;-5.646;2022-09-19T02:39:22;101627.34;;;25.47
69704;BMP280;56967;43.538;-5.646;2022-09-19T02:41:58;101625.22;;;25.31
69704;BMP280;56967;43.538;-5.646;2022-09-19T02:47:27;101620.91;;;25.30
69704;BMP280;56967;43.538;-5.646;2022-09-19T02:52:29;101617.91;;;25.17
69704;BMP280;56967;43.538;-5.646;2022-09-19T02:55:00;101615.66;;;25.38
69704;BMP280;56967;43.538;-5.646;2022-09-19T02:57:28;101621.72;;;25.62
69704;BMP280;56967;43.538;-5.646;2022-09-19T02:59:57;101618.22;;;25.62
69704;BMP280;56967;43.538;-5.646;2022-09-19T03:02:45;101620.97;;;25.57
69704;BMP280;56967;43.538;-5.646;2022-09-19T03:05:19;101610.41;;;25.60
69704;BMP280;56967;43.538;-5.646;2022-09-19T03:07:50;101610.72;;;25.72
69704;BMP280;56967;43.538;-5.646;2022-09-19T03:10:25;101608.91;;;25.68
69704;BMP280;56967;43.538;-5.646;2022-09-19T03:12:52;101598.81;;;25.60
69704;BMP280;56967;43.538;-5.646;2022-09-19T03:15:48;101609.16;;;25.71
69704;BMP280;56967;43.538;-5.646;2022-09-19T03:18:14;101603.84;;;25.80
69704;BMP280;56967;43.538;-5.646;2022-09-19T03:20:47;101601.06;;;25.85
69704;BMP280;56967;43.538;-5.646;2022-09-19T03:23:19;101595.88;;;25.88
69704;BMP280;56967;43.538;-5.646;2022-09-19T03:25:45;101602.06;;;25.75
69704;BMP280;56967;43.538;-5.646;2022-09-19T03:28:11;101599.84;;;25.91
69704;BMP280;56967;43.538;-5.646;2022-09-19T03:30:36;101599.19;;;25.99
69704;BMP280;56967;43.538;-5.646;2022-09-19T03:33:02;101602.66;;;25.99
69704;BMP280;56967;43.538;-5.646;2022-09-19T03:35:27;101602.97;;;25.98
69704;BMP280;56967;43.538;-5.646;2022-09-19T03:37:53;101602.16;;;25.97
69704;BMP280;56967;43.538;-5.646;2022-09-19T03:40:18;101602.06;;;25.89
69704;BMP280;56967;43.538;-5.646;2022-09-19T03:42:47;101596.88;;;25.79
69704;BMP280;56967;43.538;-5.646;2022-09-19T03:45:18;101599.56;;;25.65
69704;BMP280;56967;43.538;-5.646;2022-09-19T03:47:43;101600.72;;;25.73
69704;BMP280;56967;43.538;-5.646;2022-09-19T03:50:09;101590.56;;;25.70
69704;BMP280;56967;43.538;-5.646;2022-09-19T03:52:35;101598.28;;;25.63
69704;BMP280;56967;43.538;-5.646;2022-09-19T03:55:03;101588.84;;;25.47
69704;BMP280;56967;43.538;-5.646;2022-09-19T03:57:29;101596.63;;;25.35
69704;BMP280;56967;43.538;-5.646;2022-09-19T03:59:55;101591.50;;;25.33
69704;BMP280;56967;43.538;-5.646;2022-09-19T04:02:21;101588.38;;;25.45
69704;BMP280;56967;43.538;-5.646;2022-09-19T04:04:47;101594.19;;;25.33
69704;BMP280;56967;43.538;-5.646;2022-09-19T04:07:12;101591.78;;;25.18
69704;BMP280;56967;43.538;-5.646;2022-09-19T04:09:38;101599.44;;;25.57
69704;BMP280;56967;43.538;-5.646;2022-09-19T04:12:04;101601.44;;;25.65
69704;BMP280;56967;43.538;-5.646;2022-09-19T04:14:29;101597.84;;;24.91
69704;BMP280;56967;43.538;-5.646;2022-09-19T04:16:55;101592.31;;;25.01
69704;BMP280;56967;43.538;-5.646;2022-09-19T04:19:29;101591.19;;;24.70
69704;BMP280;56967;43.538;-5.646;2022-09-19T04:21:57;101592.72;;;24.58
69704;BMP280;56967;43.538;-5.646;2022-09-19T04:24:24;101597.53;;;24.37
69704;BMP280;56967;43.538;-5.646;2022-09-19T04:26:51;101594.72;;;24.28
69704;BMP280;56967;43.538;-5.646;2022-09-19T04:29:17;101587.81;;;23.99
69704;BMP280;56967;43.538;-5.646;2022-09-19T04:31:45;101584.91;;;24.38
69704;BMP280;56967;43.538;-5.646;2022-09-19T04:34:11;101581.53;;;24.51
69704;BMP280;56967;43.538;-5.646;2022-09-19T04:36:40;101581.00;;;23.83
69704;BMP280;56967;43.538;-5.646;2022-09-19T04:39:06;101585.03;;;24.27
69704;BMP280;56967;43.538;-5.646;2022-09-19T04:41:35;101583.69;;;24.49
69704;BMP280;56967;43.538;-5.646;2022-09-19T04:44:02;101587.75;;;24.83
69704;BMP280;56967;43.538;-5.646;2022-09-19T04:46:29;101588.94;;;24.16
69704;BMP280;56967;43.538;-5.646;2022-09-19T04:48:56;101582.66;;;24.26
69704;BMP280;56967;43.538;-5.646;2022-09-19T04:51:21;101584.28;;;24.64
69704;BMP280;56967;43.538;-5.646;2022-09-19T04:53:48;101587.03;;;24.78
69704;BMP280;56967;43.538;-5.646;2022-09-19T04:56:13;101579.91;;;24.87
69704;BMP280;56967;43.538;-5.646;2022-09-19T04:58:40;101589.84;;;24.86
69704;BMP280;56967;43.538;-5.646;2022-09-19T05:01:07;101585.66;;;24.62
69704;BMP280;56967;43.538;-5.646;2022-09-19T05:03:33;101584.84;;;24.80
69704;BMP280;56967;43.538;-5.646;2022-09-19T05:06:00;101580.72;;;25.79
69704;BMP280;56967;43.538;-5.646;2022-09-19T05:08:28;101585.41;;;24.21
69704;BMP280;56967;43.538;-5.646;2022-09-19T05:10:55;101588.09;;;23.97
69704;BMP280;56967;43.538;-5.646;2022-09-19T05:13:27;101590.09;;;23.87
69704;BMP280;56967;43.538;-5.646;2022-09-19T05:15:56;101589.31;;;23.81
69704;BMP280;56967;43.538;-5.646;2022-09-19T05:18:22;101584.69;;;23.63
69704;BMP280;56967;43.538;-5.646;2022-09-19T05:20:49;101585.44;;;23.11
69704;BMP280;56967;43.538;-5.646;2022-09-19T05:23:15;101587.38;;;23.34
69704;BMP280;56967;43.538;-5.646;2022-09-19T05:25:41;101590.91;;;23.30
69704;BMP280;56967;43.538;-5.646;2022-09-19T05:28:07;101594.84;;;23.37
69704;BMP280;56967;43.538;-5.646;2022-09-19T05:30:36;101592.63;;;23.16
69704;BMP280;56967;43.538;-5.646;2022-09-19T05:33:04;101595.59;;;23.14
69704;BMP280;56967;43.538;-5.646;2022-09-19T05:35:30;101592.31;;;23.22
69704;BMP280;56967;43.538;-5.646;2022-09-19T05:37:56;101592.75;;;23.34
69704;BMP280;56967;43.538;-5.646;2022-09-19T05:40:23;101593.59;;;22.86
69704;BMP280;56967;43.538;-5.646;2022-09-19T05:42:50;101595.69;;;23.67
69704;BMP280;56967;43.538;-5.646;2022-09-19T05:45:16;101601.47;;;23.16
69704;BMP280;56967;43.538;-5.646;2022-09-19T05:47:42;101605.00;;;23.74
69704;BMP280;56967;43.538;-5.646;2022-09-19T05:50:10;101598.94;;;23.30
69704;BMP280;56967;43.538;-5.646;2022-09-19T05:52:39;101597.59;;;23.32
69704;BMP280;56967;43.538;-5.646;2022-09-19T05:55:25;101596.09;;;23.16
69704;BMP280;56967;43.538;-5.646;2022-09-19T05:57:53;101602.38;;;23.69
69704;BMP280;56967;43.538;-5.646;2022-09-19T06:00:20;101606.50;;;23.23
69704;BMP280;56967;43.538;-5.646;2022-09-19T06:02:56;101616.59;;;23.70
69704;BMP280;56967;43.538;-5.646;2022-09-19T06:05:24;101614.91;;;24.02
69704;BMP280;56967;43.538;-5.646;2022-09-19T06:07:50;101621.31;;;24.06
69704;BMP280;56967;43.538;-5.646;2022-09-19T06:10:18;101629.00;;;24.13
69704;BMP280;56967;43.538;-5.646;2022-09-19T06:12:44;101623.38;;;24.14
69704;BMP280;56967;43.538;-5.646;2022-09-19T06:15:09;101622.44;;;23.48
69704;BMP280;56967;43.538;-5.646;2022-09-19T06:17:35;101627.53;;;23.44
69704;BMP280;56967;43.538;-5.646;2022-09-19T06:20:01;101624.84;;;23.44
69704;BMP280;56967;43.538;-5.646;2022-09-19T06:22:26;101633.56;;;23.26
69704;BMP280;56967;43.538;-5.646;2022-09-19T06:24:52;101638.69;;;23.62
69704;BMP280;56967;43.538;-5.646;2022-09-19T06:27:17;101639.47;;;24.38
69704;BMP280;56967;43.538;-5.646;2022-09-19T06:29:43;101645.41;;;23.88
69704;BMP280;56967;43.538;-5.646;2022-09-19T06:32:09;101649.91;;;24.63
69704;BMP280;56967;43.538;-5.646;2022-09-19T06:34:35;101658.00;;;24.82
69704;BMP280;56967;43.538;-5.646;2022-09-19T06:37:00;101677.00;;;26.41
69704;BMP280;56967;43.538;-5.646;2022-09-19T06:39:26;101687.69;;;27.18
69704;BMP280;56967;43.538;-5.646;2022-09-19T06:41:51;101679.78;;;28.47
69704;BMP280;56967;43.538;-5.646;2022-09-19T06:44:17;101696.16;;;30.23
69704;BMP280;56967;43.538;-5.646;2022-09-19T06:46:43;101701.63;;;32.06
69704;BMP280;56967;43.538;-5.646;2022-09-19T06:49:09;101700.88;;;32.72
69704;BMP280;56967;43.538;-5.646;2022-09-19T06:51:35;101712.22;;;33.87
69704;BMP280;56967;43.538;-5.646;2022-09-19T06:54:01;101714.78;;;35.20
69704;BMP280;56967;43.538;-5.646;2022-09-19T06:56:27;101726.59;;;35.80
69704;BMP280;56967;43.538;-5.646;2022-09-19T06:58:53;101722.28;;;37.36
69704;BMP280;56967;43.538;-5.646;2022-09-19T07:01:18;101743.72;;;37.88
69704;BMP280;56967;43.538;-5.646;2022-09-19T07:03:44;101743.38;;;39.40
69704;BMP280;56967;43.538;-5.646;2022-09-19T07:06:10;101751.88;;;40.87
69704;BMP280;56967;43.538;-5.646;2022-09-19T07:08:35;101752.94;;;41.93
69704;BMP280;56967;43.538;-5.646;2022-09-19T07:11:02;101759.75;;;41.59
69704;BMP280;56967;43.538;-5.646;2022-09-19T07:13:27;101760.44;;;42.19
69704;BMP280;56967;43.538;-5.646;2022-09-19T07:15:54;101767.03;;;42.95
69704;BMP280;56967;43.538;-5.646;2022-09-19T07:18:22;101779.28;;;43.68
69704;BMP280;56967;43.538;-5.646;2022-09-19T07:20:48;101782.16;;;42.21
69704;BMP280;56967;43.538;-5.646;2022-09-19T07:23:17;101788.03;;;44.91
69704;BMP280;56967;43.538;-5.646;2022-09-19T07:25:44;101804.19;;;45.62
69704;BMP280;56967;43.538;-5.646;2022-09-19T07:28:12;101811.00;;;46.97
69704;BMP280;56967;43.538;-5.646;2022-09-19T07:30:39;101805.22;;;47.44
69704;BMP280;56967;43.538;-5.646;2022-09-19T07:33:07;101816.50;;;48.79
69704;BMP280;56967;43.538;-5.646;2022-09-19T07:35:36;101941.00;;;48.80
69704;BMP280;56967;43.538;-5.646;2022-09-19T07:38:03;101978.94;;;54.75
69704;BMP280;56967;43.538;-5.646;2022-09-19T07:40:30;101980.50;;;57.29
69704;BMP280;56967;43.538;-5.646;2022-09-19T07:42:59;101995.81;;;59.22
69704;BMP280;56967;43.538;-5.646;2022-09-19T07:45:27;102003.16;;;59.98
69704;BMP280;56967;43.538;-5.646;2022-09-19T07:47:53;102011.06;;;61.39
69704;BMP280;56967;43.538;-5.646;2022-09-19T07:50:18;102016.16;;;59.73
69704;BMP280;56967;43.538;-5.646;2022-09-19T07:52:45;102021.97;;;62.45
69704;BMP280;56967;43.538;-5.646;2022-09-19T07:55:15;102036.91;;;63.54
69704;BMP280;56967;43.538;-5.646;2022-09-19T07:57:52;102048.81;;;63.92
69704;BMP280;56967;43.538;-5.646;2022-09-19T08:00:17;102055.31;;;65.20
69704;BMP280;56967;43.538;-5.646;2022-09-19T08:02:43;102065.41;;;65.48
69704;BMP280;56967;43.538;-5.646;2022-09-19T08:05:09;102070.50;;;65.76
69704;BMP280;56967;43.538;-5.646;2022-09-19T08:07:34;102071.34;;;66.52
69704;BMP280;56967;43.538;-5.646;2022-09-19T08:10:00;102080.72;;;66.33
69704;BMP280;56967;43.538;-5.646;2022-09-19T08:12:28;102076.75;;;66.10
69704;BMP280;56967;43.538;-5.646;2022-09-19T08:14:54;102083.72;;;66.35
69704;BMP280;56967;43.538;-5.646;2022-09-19T08:17:21;102094.00;;;66.19
69704;BMP280;56967;43.538;-5.646;2022-09-19T08:19:47;102064.38;;;63.18
69704;BMP280;56967;43.538;-5.646;2022-09-19T08:22:12;102026.16;;;62.44
69704;BMP280;56967;43.538;-5.646;2022-09-19T08:24:38;102013.44;;;58.95
69704;BMP280;56967;43.538;-5.646;2022-09-19T08:27:04;102003.13;;;59.31
69704;BMP280;56967;43.538;-5.646;2022-09-19T08:29:29;102000.78;;;58.25
69704;BMP280;56967;43.538;-5.646;2022-09-19T08:31:57;102008.84;;;59.18
69704;BMP280;56967;43.538;-5.646;2022-09-19T08:34:24;102005.91;;;59.90
69704;BMP280;56967;43.538;-5.646;2022-09-19T08:36:51;102001.50;;;55.92
69704;BMP280;56967;43.538;-5.646;2022-09-19T08:39:18;101999.00;;;56.58
69704;BMP280;56967;43.538;-5.646;2022-09-19T08:45:03;101999.84;;;58.49
69704;BMP280;56967;43.538;-5.646;2022-09-19T08:47:34;101993.94;;;59.71
69704;BMP280;56967;43.538;-5.646;2022-09-19T08:50:13;101978.78;;;57.45
69704;BMP280;56967;43.538;-5.646;2022-09-19T08:52:44;101881.78;;;51.36
69704;BMP280;56967;43.538;-5.646;2022-09-19T08:55:16;101792.50;;;45.67
69704;BMP280;56967;43.538;-5.646;2022-09-19T08:58:04;101796.50;;;41.22
69704;BMP280;56967;43.538;-5.646;2022-09-19T09:00:35;101799.84;;;39.94
69704;BMP280;56967;43.538;-5.646;2022-09-19T09:03:04;101803.25;;;38.84
69704;BMP280;56967;43.538;-5.646;2022-09-19T09:09:00;101791.56;;;36.79
69704;BMP280;56967;43.538;-5.646;2022-09-19T09:12:30;101799.00;;;36.42
69704;BMP280;56967;43.538;-5.646;2022-09-19T09:22:46;101798.63;;;30.76
69704;BMP280;56967;43.538;-5.646;2022-09-19T09:25:18;101804.72;;;30.94
69704;BMP280;56967;43.538;-5.646;2022-09-19T09:28:39;101792.34;;;30.34
69704;BMP280;56967;43.538;-5.646;2022-09-19T09:30:56;101792.53;;;30.59
69704;BMP280;56967;43.538;-5.646;2022-09-19T09:33:28;101791.97;;;31.27
69704;BMP280;56967;43.538;-5.646;2022-09-19T09:36:04;101792.13;;;30.69
69704;BMP280;56967;43.538;-5.646;2022-09-19T09:38:43;101788.81;;;30.13
69704;BMP280;56967;43.538;-5.646;2022-09-19T09:41:19;101798.69;;;30.18
69704;BMP280;56967;43.538;-5.646;2022-09-19T09:44:22;101802.59;;;30.29
69704;BMP280;56967;43.538;-5.646;2022-09-19T09:47:13;101803.66;;;29.70
69704;BMP280;56967;43.538;-5.646;2022-09-19T09:49:41;101801.41;;;30.09
69704;BMP280;56967;43.538;-5.646;2022-09-19T09:57:54;101805.66;;;29.27
69704;BMP280;56967;43.538;-5.646;2022-09-19T10:00:22;101791.25;;;29.43
69704;BMP280;56967;43.538;-5.646;2022-09-19T10:03:24;101822.22;;;29.25
69704;BMP280;56967;43.538;-5.646;2022-09-19T10:11:51;101814.22;;;29.29
69704;BMP280;56967;43.538;-5.646;2022-09-19T10:14:23;101798.13;;;29.32
69704;BMP280;56967;43.538;-5.646;2022-09-19T10:16:52;101792.41;;;29.16
69704;BMP280;56967;43.538;-5.646;2022-09-19T10:19:35;101778.97;;;29.37
69704;BMP280;56967;43.538;-5.646;2022-09-19T10:22:02;101791.69;;;29.71
69704;BMP280;56967;43.538;-5.646;2022-09-19T10:24:55;101795.34;;;29.75
69704;BMP280;56967;43.538;-5.646;2022-09-19T10:30:18;101788.28;;;29.19
69704;BMP280;56967;43.538;-5.646;2022-09-19T10:32:48;101786.03;;;29.21
69704;BMP280;56967;43.538;-5.646;2022-09-19T10:35:34;101795.09;;;29.51
69704;BMP280;56967;43.538;-5.646;2022-09-19T10:38:11;101790.34;;;29.31
69704;BMP280;56967;43.538;-5.646;2022-09-19T10:40:59;101797.31;;;29.23
69704;BMP280;56967;43.538;-5.646;2022-09-19T10:43:31;101796.22;;;30.04
69704;BMP280;56967;43.538;-5.646;2022-09-19T10:45:58;101798.91;;;29.50
69704;BMP280;56967;43.538;-5.646;2022-09-19T10:48:37;101796.69;;;29.35
69704;BMP280;56967;43.538;-5.646;2022-09-19T10:51:09;101787.06;;;29.63
69704;BMP280;56967;43.538;-5.646;2022-09-19T10:53:38;101805.31;;;29.11
69704;BMP280;56967;43.538;-5.646;2022-09-19T10:56:16;101805.66;;;29.18
69704;BMP280;56967;43.538;-5.646;2022-09-19T11:02:03;101792.09;;;29.35
69704;BMP280;56967;43.538;-5.646;2022-09-19T11:04:29;101800.06;;;29.32
69704;BMP280;56967;43.538;-5.646;2022-09-19T11:07:00;101790.50;;;29.08
69704;BMP280;56967;43.538;-5.646;2022-09-19T11:09:35;101795.34;;;29.75
69704;BMP280;56967;43.538;-5.646;2022-09-19T11:12:13;101804.84;;;29.09
69704;BMP280;56967;43.538;-5.646;2022-09-19T11:14:41;101800.06;;;28.97
69704;BMP280;56967;43.538;-5.646;2022-09-19T11:20:16;101794.16;;;29.30
69704;BMP280;56967;43.538;-5.646;2022-09-19T11:26:02;101784.44;;;29.20
69704;BMP280;56967;43.538;-5.646;2022-09-19T11:31:11;101785.19;;;29.38
69704;BMP280;56967;43.538;-5.646;2022-09-19T12:09:35;101779.31;;;28.67
69704;BMP280;56967;43.538;-5.646;2022-09-19T12:12:06;101780.44;;;28.75
69704;BMP280;56967;43.538;-5.646;2022-09-19T12:14:39;101780.47;;;29.09
69704;BMP280;56967;43.538;-5.646;2022-09-19T12:17:29;101781.06;;;29.40
69704;BMP280;56967;43.538;-5.646;2022-09-19T12:20:21;101770.88;;;29.20
69704;BMP280;56967;43.538;-5.646;2022-09-19T12:22:57;101781.25;;;28.75
69704;BMP280;56967;43.538;-5.646;2022-09-19T12:25:46;101785.72;;;29.23
69704;BMP280;56967;43.538;-5.646;2022-09-19T12:28:13;101754.19;;;29.18
69704;BMP280;56967;43.538;-5.646;2022-09-19T12:30:45;101767.22;;;29.33
69704;BMP280;56967;43.538;-5.646;2022-09-19T12:36:19;101784.28;;;29.34
69704;BMP280;56967;43.538;-5.646;2022-09-19T12:39:16;101794.00;;;29.17
69704;BMP280;56967;43.538;-5.646;2022-09-19T12:41:49;101794.19;;;29.12
69704;BMP280;56967;43.538;-5.646;2022-09-19T12:44:28;101787.00;;;29.08
69704;BMP280;56967;43.538;-5.646;2022-09-19T12:47:04;101795.28;;;29.11
69704;BMP280;56967;43.538;-5.646;2022-09-19T12:49:48;101784.44;;;29.11
69704;BMP280;56967;43.538;-5.646;2022-09-19T12:52:25;101802.75;;;28.97
69704;BMP280;56967;43.538;-5.646;2022-09-19T12:57:36;101771.34;;;29.05
69704;BMP280;56967;43.538;-5.646;2022-09-19T13:00:07;101768.81;;;28.66
69704;BMP280;56967;43.538;-5.646;2022-09-19T13:02:44;101769.94;;;29.16
69704;BMP280;56967;43.538;-5.646;2022-09-19T13:05:28;101777.59;;;28.71
69704;BMP280;56967;43.538;-5.646;2022-09-19T13:08:09;101778.28;;;28.46
69704;BMP280;56967;43.538;-5.646;2022-09-19T13:10:41;101770.72;;;28.65
69704;BMP280;56967;43.538;-5.646;2022-09-19T13:13:35;101778.97;;;28.52
69704;BMP280;56967;43.538;-5.646;2022-09-19T13:16:01;101778.28;;;28.46
69704;BMP280;56967;43.538;-5.646;2022-09-19T13:18:30;101757.97;;;28.66
69704;BMP280;56967;43.538;-5.646;2022-09-19T13:21:19;101784.53;;;28.55
69704;BMP280;56967;43.538;-5.646;2022-09-19T13:24:04;101765.72;;;28.42
69704;BMP280;56967;43.538;-5.646;2022-09-19T13:26:33;101777.75;;;28.75
69704;BMP280;56967;43.538;-5.646;2022-09-19T13:32:03;101748.03;;;28.27
69704;BMP280;56967;43.538;-5.646;2022-09-19T13:36:59;101755.56;;;28.56
69704;BMP280;56967;43.538;-5.646;2022-09-19T13:42:33;101741.47;;;28.28
69704;BMP280;56967;43.538;-5.646;2022-09-19T13:47:48;101744.78;;;28.98
69704;BMP280;56967;43.538;-5.646;2022-09-19T13:50:20;101743.88;;;28.21
69704;BMP280;56967;43.538;-5.646;2022-09-19T13:52:52;101732.84;;;28.91
69704;BMP280;56967;43.538;-5.646;2022-09-19T13:55:31;101740.22;;;28.34
69704;BMP280;56967;43.538;-5.646;2022-09-19T14:00:47;101732.44;;;28.33
69704;BMP280;56967;43.538;-5.646;2022-09-19T14:03:31;101764.91;;;27.93
69704;BMP280;56967;43.538;-5.646;2022-09-19T14:06:24;101733.47;;;28.06
69704;BMP280;56967;43.538;-5.646;2022-09-19T14:09:19;101741.69;;;28.40
69704;BMP280;56967;43.538;-5.646;2022-09-19T14:11:46;101723.72;;;28.70
69704;BMP280;56967;43.538;-5.646;2022-09-19T14:19:56;101749.56;;;28.93
69704;BMP280;56967;43.538;-5.646;2022-09-19T14:25:23;101736.72;;;27.86
69704;BMP280;56967;43.538;-5.646;2022-09-19T14:50:46;101734.75;;;28.82
69704;BMP280;56967;43.538;-5.646;2022-09-19T14:53:28;101724.38;;;28.92
69704;BMP280;56967;43.538;-5.646;2022-09-19T14:56:01;101727.09;;;29.18
69704;BMP280;56967;43.538;-5.646;2022-09-19T14:58:32;101759.47;;;28.24
69704;BMP280;56967;43.538;-5.646;2022-09-19T15:01:07;101733.28;;;28.84
69704;BMP280;56967;43.538;-5.646;2022-09-19T15:04:02;101738.84;;;29.05
69704;BMP280;56967;43.538;-5.646;2022-09-19T15:06:35;101745.72;;;28.94
69704;BMP280;56967;43.538;-5.646;2022-09-19T15:09:21;101734.53;;;29.30
69704;BMP280;56967;43.538;-5.646;2022-09-19T15:11:51;101718.31;;;28.70
69704;BMP280;56967;43.538;-5.646;2022-09-19T15:14:24;101752.13;;;28.81
69704;BMP280;56967;43.538;-5.646;2022-09-19T15:17:19;101756.41;;;28.90
69704;BMP280;56967;43.538;-5.646;2022-09-19T15:19:52;101725.63;;;29.20
69704;BMP280;56967;43.538;-5.646;2022-09-19T15:22:25;101758.47;;;29.02
69704;BMP280;56967;43.538;-5.646;2022-09-19T15:24:55;101737.91;;;29.01
69704;BMP280;56967;43.538;-5.646;2022-09-19T15:27:33;101734.72;;;29.25
69704;BMP280;56967;43.538;-5.646;2022-09-19T15:30:16;101739.53;;;28.76
69704;BMP280;56967;43.538;-5.646;2022-09-19T15:33:03;101738.72;;;28.93
69704;BMP280;56967;43.538;-5.646;2022-09-19T15:35:32;101744.28;;;28.54
69704;BMP280;56967;43.538;-5.646;2022-09-19T15:38:01;101751.56;;;28.36
69704;BMP280;56967;43.538;-5.646;2022-09-19T15:40:29;101751.59;;;28.05
69704;BMP280;56967;43.538;-5.646;2022-09-19T15:42:56;101737.66;;;28.12
69704;BMP280;56967;43.538;-5.646;2022-09-19T15:48:00;101752.16;;;28.25
69704;BMP280;56967;43.538;-5.646;2022-09-19T15:50:30;101716.75;;;28.04
69704;BMP280;56967;43.538;-5.646;2022-09-19T15:52:57;101763.22;;;28.06
69704;BMP280;56967;43.538;-5.646;2022-09-19T15:55:24;101745.34;;;27.96
69704;BMP280;56967;43.538;-5.646;2022-09-19T15:57:59;101757.38;;;27.82
69704;BMP280;56967;43.538;-5.646;2022-09-19T16:00:27;101776.56;;;28.02
69704;BMP280;56967;43.538;-5.646;2022-09-19T16:02:54;101758.66;;;27.84
69704;BMP280;56967;43.538;-5.646;2022-09-19T16:05:26;101766.84;;;28.01
69704;BMP280;56967;43.538;-5.646;2022-09-19T16:07:54;101776.13;;;28.09
69704;BMP280;56967;43.538;-5.646;2022-09-19T16:10:41;101742.19;;;28.51
69704;BMP280;56967;43.538;-5.646;2022-09-19T16:13:32;101752.19;;;27.94
69704;BMP280;56967;43.538;-5.646;2022-09-19T16:16:02;101757.44;;;28.38
69704;BMP280;56967;43.538;-5.646;2022-09-19T16:18:29;101750.78;;;28.05
69704;BMP280;56967;43.538;-5.646;2022-09-19T16:21:10;101741.75;;;28.66
69704;BMP280;56967;43.538;-5.646;2022-09-19T16:23:43;101753.69;;;28.82
69704;BMP280;56967;43.538;-5.646;2022-09-19T16:26:14;101764.47;;;28.56
69704;BMP280;56967;43.538;-5.646;2022-09-19T16:29:00;101741.22;;;28.55
69704;BMP280;56967;43.538;-5.646;2022-09-19T16:31:32;101755.91;;;28.54
69704;BMP280;56967;43.538;-5.646;2022-09-19T16:34:53;101725.34;;;28.54
69704;BMP280;56967;43.538;-5.646;2022-09-19T16:36:57;101736.97;;;28.54
69704;BMP280;56967;43.538;-5.646;2022-09-19T16:39:28;101751.13;;;28.60
69704;BMP280;56967;43.538;-5.646;2022-09-19T16:47:09;101759.81;;;28.31
69704;BMP280;56967;43.538;-5.646;2022-09-19T16:49:36;101759.69;;;28.36
69704;BMP280;56967;43.538;-5.646;2022-09-19T16:52:02;101752.41;;;28.54
69704;BMP280;56967;43.538;-5.646;2022-09-19T16:54:29;101774.56;;;28.17